Time;durP1;ratioP1;P1;durP2;ratioP2;P2;SDS_P1;SDS_P2;PMS_P1;PMS_P2;Temp;Humidity;BMP_temperature;BMP_pressure;BME280_temperature;BME280_humidity;BME280_pressure;Samples;Min_cycle;Max_cycle;Signal;HPM_P1;HPM_P2
2021/08/24 00:00:08;;;;;;;4.97;2.10;;;;;;;10.84;65.21;102420.63;4991451;28;20642;-69
2021/08/24 00:02:38;;;;;;;5.00;2.43;;;;;;;10.80;65.01;102416.31;4990560;28;20246;-69
2021/08/24 00:05:08;;;;;;;4.53;2.23;;;;;;;10.74;65.33;102422.84;4990501;28;20209;-69
2021/08/24 00:07:36;;;;;;;4.17;2.10;;;;;;;10.75;65.46;102416.53;4990589;28;20225;-69
2021/08/24 00:10:06;;;;;;;5.53;2.43;;;;;;;10.62;65.35;102406.31;4991144;28;20207;-69
2021/08/24 00:12:36;;;;;;;4.90;2.50;;;;;;;10.71;64.65;102420.25;4976685;28;20201;-69
2021/08/24 00:15:05;;;;;;;5.07;2.07;;;;;;;10.67;65.09;102413.25;4991224;28;20738;-70
2021/08/24 00:17:33;;;;;;;5.23;2.03;;;;;;;10.65;65.29;102409.75;4990927;28;20196;-69
2021/08/24 00:20:01;;;;;;;5.40;2.53;;;;;;;10.58;65.22;102405.56;4990817;28;20668;-70
2021/08/24 00:22:30;;;;;;;4.20;2.30;;;;;;;10.59;64.80;102412.69;4990934;28;20212;-70
2021/08/24 00:24:58;;;;;;;5.70;2.30;;;;;;;10.60;64.97;102413.56;4989789;28;20265;-70
2021/08/24 00:27:26;;;;;;;3.83;2.10;;;;;;;10.09;65.18;102328.78;4989390;28;20612;-69
2021/08/24 00:29:55;;;;;;;4.50;2.30;;;;;;;10.58;65.23;102411.81;4989627;28;20206;-69
2021/08/24 00:32:23;;;;;;;3.43;1.93;;;;;;;10.52;65.60;102412.09;4988956;28;20203;-70
2021/08/24 00:34:51;;;;;;;4.13;2.10;;;;;;;10.45;65.40;102405.22;4989270;28;20258;-68
2021/08/24 00:37:21;;;;;;;2.80;1.90;;;;;;;10.42;64.92;102412.53;4975644;28;20248;-69
2021/08/24 00:39:49;;;;;;;3.97;2.23;;;;;;;10.42;64.90;102410.72;4988758;28;20208;-68
2021/08/24 00:42:19;;;;;;;4.60;2.20;;;;;;;10.46;65.18;102424.91;4988654;28;20200;-69
2021/08/24 00:44:48;;;;;;;3.00;1.93;;;;;;;10.43;64.92;102427.69;4975906;28;20208;-68
2021/08/24 00:47:20;;;;;;;3.70;2.00;;;;;;;10.40;65.37;102434.03;4988560;28;20270;-68
2021/08/24 00:49:49;;;;;;;3.80;2.23;;;;;;;10.37;64.87;102426.13;4987969;28;20246;-68
2021/08/24 00:52:21;;;;;;;5.00;2.10;;;;;;;10.36;65.48;102440.47;4989478;28;20207;-68
2021/08/24 00:54:51;;;;;;;3.90;2.13;;;;;;;10.36;65.11;102444.97;4988326;28;20767;-68
2021/08/24 00:57:22;;;;;;;6.20;4.73;;;;;;;10.11;65.87;102404.78;5002090;28;20199;-68
2021/08/24 00:59:51;;;;;;;736.83;309.37;;;;;;;10.24;65.54;102438.28;4988996;28;20218;-68
2021/08/24 01:02:25;;;;;;;25.00;19.13;;;;;;;10.25;65.69;102430.16;4988701;28;20253;-69
2021/08/24 01:04:54;;;;;;;13.33;9.93;;;;;;;10.27;68.17;102444.41;4993292;28;20675;-68
2021/08/24 01:07:26;;;;;;;13.17;9.13;;;;;;;10.28;68.81;102447.97;4987401;28;20561;-68
2021/08/24 01:10:06;;;;;;;9.33;6.40;;;;;;;10.23;67.43;102442.78;4985221;28;20211;-69
2021/08/24 01:12:39;;;;;;;9.77;6.57;;;;;;;10.32;66.67;102446.03;4987058;28;20196;-67
2021/08/24 01:15:19;;;;;;;7.23;4.93;;;;;;;10.33;66.76;102447.78;4986879;28;20634;-69
2021/08/24 01:17:55;;;;;;;8.97;5.20;;;;;;;10.19;66.69;102414.28;4974515;28;20293;-68
2021/08/24 01:20:50;;;;;;;6.57;4.03;;;;;;;10.39;65.99;102442.16;5003725;28;20249;-68
2021/08/24 01:23:33;;;;;;;5.00;3.57;;;;;;;10.29;65.82;102438.97;4988478;28;20486;-68
2021/08/24 01:26:08;;;;;;;6.27;3.47;;;;;;;10.27;66.85;102446.22;4988294;28;20207;-68
2021/08/24 01:28:50;;;;;;;4.90;2.47;;;;;;;10.22;66.68;102451.78;4987816;28;20216;-69
2021/08/24 01:31:52;;;;;;;12.47;3.90;;;;;;;10.28;67.29;102445.28;5000738;28;20208;-69
2021/08/24 01:34:37;;;;;;;5.00;2.90;;;;;;;10.17;67.12;102442.13;4978017;28;20210;-68
2021/08/24 01:37:12;;;;;;;6.37;2.90;;;;;;;10.20;67.01;102469.75;4988219;28;20644;-69
2021/08/24 01:39:44;;;;;;;2.67;1.97;;;;;;;10.10;66.86;102446.84;4988906;28;20207;-69
2021/08/24 01:42:16;;;;;;;5.97;2.03;;;;;;;10.12;66.26;102444.09;4992312;28;20273;-69
2021/08/24 01:44:58;;;;;;;3.10;2.10;;;;;;;10.11;66.96;102442.34;4988081;28;20194;-69
2021/08/24 01:47:33;;;;;;;11.20;2.20;;;;;;;10.10;65.98;102448.63;4988313;28;20218;-69
2021/08/24 01:50:09;;;;;;;3.47;1.60;;;;;;;10.07;66.17;102456.81;4988424;28;20210;-69
2021/08/24 01:52:44;;;;;;;4.50;1.80;;;;;;;10.01;66.45;102455.22;4988187;28;20253;-69
2021/08/24 01:55:17;;;;;;;3.70;1.70;;;;;;;10.01;66.17;102457.91;4987693;28;20203;-68
2021/08/24 01:57:51;;;;;;;3.50;2.07;;;;;;;9.99;66.34;102462.47;4988445;28;20251;-68
2021/08/24 02:00:20;;;;;;;2.83;1.53;;;;;;;10.00;66.10;102460.66;4978233;28;20602;-68
2021/08/24 02:02:52;;;;;;;3.40;2.00;;;;;;;9.89;65.86;102439.59;4991960;28;20244;-68
2021/08/24 02:05:25;;;;;;;2.93;1.73;;;;;;;9.75;66.30;102415.09;4990892;28;20277;-68
2021/08/24 02:08:00;;;;;;;3.03;1.83;;;;;;;9.91;66.36;102443.97;4991014;28;20300;-68
2021/08/24 02:10:28;;;;;;;2.50;1.70;;;;;;;9.70;66.73;102423.31;4992126;28;20210;-69
2021/08/24 02:13:01;;;;;;;2.97;1.77;;;;;;;9.76;66.53;102430.25;4992399;28;20695;-68
2021/08/24 02:15:33;;;;;;;2.80;1.87;;;;;;;9.82;66.47;102447.00;4992273;28;20667;-68
2021/08/24 02:18:02;;;;;;;7.53;2.13;;;;;;;9.82;66.56;102443.47;4992188;28;20211;-69
2021/08/24 02:20:34;;;;;;;4.90;2.00;;;;;;;9.82;65.86;102444.34;4992633;28;20211;-69
2021/08/24 02:23:08;;;;;;;2.97;1.80;;;;;;;9.77;66.52;102453.47;4977508;28;20322;-69
2021/08/24 02:25:40;;;;;;;3.57;1.60;;;;;;;9.75;66.40;102444.59;5007235;28;20208;-69
2021/08/24 02:28:12;;;;;;;4.93;2.10;;;;;;;9.72;66.28;102450.94;4991892;28;20218;-69
2021/08/24 02:30:47;;;;;;;5.73;2.10;;;;;;;9.68;66.59;102452.00;4990789;28;20258;-69
2021/08/24 02:33:16;;;;;;;3.93;1.90;;;;;;;9.66;66.76;102451.19;5002878;28;20261;-68
2021/08/24 02:35:50;;;;;;;5.10;2.07;;;;;;;9.64;67.09;102447.69;4981122;28;20196;-69
2021/08/24 02:38:24;;;;;;;5.17;1.90;;;;;;;9.62;67.06;102447.75;4991960;28;20204;-69
2021/08/24 02:41:00;;;;;;;3.60;1.87;;;;;;;9.45;66.64;102427.81;4992852;28;20207;-69
2021/08/24 02:43:34;;;;;;;6.30;2.10;;;;;;;9.39;66.70;102418.19;4991120;28;20204;-69
2021/08/24 02:46:07;;;;;;;5.20;2.27;;;;;;;9.60;66.40;102457.66;4981834;28;20224;-69
2021/08/24 02:48:39;;;;;;;2.33;1.77;;;;;;;9.41;66.76;102428.84;4977156;28;20213;-69
2021/08/24 02:51:07;;;;;;;3.20;1.40;;;;;;;9.31;66.29;102409.53;4990277;28;20211;-69
2021/08/24 02:53:41;;;;;;;2.27;1.60;;;;;;;9.54;66.73;102457.88;4989507;28;20215;-69
2021/08/24 02:56:09;;;;;;;2.23;1.50;;;;;;;9.51;66.45;102455.31;4990932;28;20241;-68
2021/08/24 02:58:37;;;;;;;2.63;1.57;;;;;;;9.50;66.45;102452.69;5002455;28;20243;-68
2021/08/24 03:01:05;;;;;;;2.93;1.30;;;;;;;9.40;66.59;102436.03;4980877;28;20697;-69
2021/08/24 03:03:33;;;;;;;4.13;1.83;;;;;;;9.50;66.69;102450.00;4990593;28;20236;-69
2021/08/24 03:06:01;;;;;;;6.50;2.10;;;;;;;9.52;66.52;102458.88;4990896;28;20200;-69
2021/08/24 03:08:29;;;;;;;3.80;1.67;;;;;;;9.47;66.69;102461.69;4990346;28;20350;-69
2021/08/24 03:10:59;;;;;;;2.37;1.33;;;;;;;9.42;67.01;102446.69;4984030;28;20211;-70
2021/08/24 03:13:33;;;;;;;2.60;1.30;;;;;;;9.47;66.74;102452.75;4985574;28;20203;-69
2021/08/24 03:16:11;;;;;;;3.70;1.40;;;;;;;9.43;67.34;102464.53;4982060;28;20276;-69
2021/08/24 03:18:43;;;;;;;3.57;1.60;;;;;;;9.37;66.98;102460.25;4987926;28;20283;-70
2021/08/24 03:21:15;;;;;;;4.33;1.70;;;;;;;9.37;66.89;102449.53;4984008;28;20210;-69
2021/08/24 03:23:44;;;;;;;2.43;1.60;;;;;;;9.37;67.11;102464.75;4973481;28;20197;-69
2021/08/24 03:26:19;;;;;;;3.00;1.70;;;;;;;9.34;66.35;102446.97;5003454;28;20630;-69
2021/08/24 03:28:47;;;;;;;3.30;1.70;;;;;;;9.38;66.48;102459.34;4985941;28;20226;-69
2021/08/24 03:31:17;;;;;;;2.00;1.40;;;;;;;9.42;66.14;102458.28;4985318;28;20220;-69
2021/08/24 03:33:46;;;;;;;3.03;1.50;;;;;;;9.36;66.10;102450.47;4979127;28;20205;-69
2021/08/24 03:36:15;;;;;;;3.63;1.60;;;;;;;9.37;66.45;102449.53;4990268;28;20207;-68
2021/08/24 03:38:43;;;;;;;1.90;1.50;;;;;;;9.38;66.48;102448.59;4977755;28;20508;-69
2021/08/24 03:41:12;;;;;;;3.27;1.60;;;;;;;9.36;66.29;102454.97;4979487;28;20227;-69
2021/08/24 03:43:42;;;;;;;2.10;1.50;;;;;;;9.28;67.21;102449.88;4988457;28;20215;-69
2021/08/24 03:46:10;;;;;;;3.30;2.30;;;;;;;9.29;66.94;102462.34;4989024;28;20205;-69
2021/08/24 03:48:38;;;;;;;1042.03;559.93;;;;;;;9.32;66.90;102454.19;4973671;28;20223;-69
2021/08/24 03:51:06;;;;;;;89.93;45.10;;;;;;;9.35;66.87;102459.44;4986529;28;20204;-69
2021/08/24 03:53:35;;;;;;;12.37;7.30;;;;;;;9.26;66.75;102438.31;4989713;28;20198;-69
2021/08/24 03:56:06;;;;;;;10.53;8.83;;;;;;;9.41;66.53;102456.53;4991218;28;20223;-69
2021/08/24 03:58:35;;;;;;;11.00;6.57;;;;;;;9.45;66.82;102451.94;4987086;28;20215;-69
2021/08/24 04:01:11;;;;;;;3.93;2.30;;;;;;;9.37;66.51;102433.44;4987572;28;20242;-69
2021/08/24 04:03:39;;;;;;;3.13;1.80;;;;;;;9.47;66.67;102456.31;4982630;28;20228;-69
2021/08/24 04:06:09;;;;;;;2.90;1.80;;;;;;;9.48;66.78;102454.50;4987597;28;20218;-69
2021/08/24 04:08:37;;;;;;;2.97;1.53;;;;;;;9.28;66.82;102423.94;4985717;28;20192;-69
2021/08/24 04:11:07;;;;;;;2.93;1.90;;;;;;;9.49;66.18;102453.56;4986727;28;20717;-69
2021/08/24 04:13:36;;;;;;;2.80;1.63;;;;;;;9.51;66.74;102451.75;4991554;28;20203;-69
2021/08/24 04:16:07;;;;;;;3.67;1.70;;;;;;;9.51;66.97;102452.63;4991397;28;20214;-69
2021/08/24 04:18:35;;;;;;;3.43;1.77;;;;;;;9.53;67.07;102457.94;4986559;28;20211;-67
2021/08/24 04:21:07;;;;;;;5.40;3.17;;;;;;;9.54;66.49;102457.88;4977607;28;20643;-69
2021/08/24 04:23:35;;;;;;;1.90;1.43;;;;;;;9.47;66.38;102434.00;4992666;28;20622;-69
2021/08/24 04:26:04;;;;;;;2.27;1.40;;;;;;;9.57;67.08;102452.41;4991763;28;20538;-69
2021/08/24 04:28:33;;;;;;;2.73;1.30;;;;;;;9.74;67.26;102469.66;4984440;28;20654;-69
2021/08/24 04:31:03;;;;;;;5.07;1.50;;;;;;;9.72;67.87;102468.84;4982885;28;20234;-67
2021/08/24 04:33:35;;;;;;;1.93;1.30;;;;;;;9.73;68.07;102467.91;4983646;28;20213;-69
2021/08/24 04:36:05;;;;;;;2.57;1.40;;;;;;;9.75;68.24;102471.41;4985863;28;20716;-68
2021/08/24 04:38:34;;;;;;;3.43;1.37;;;;;;;9.80;68.03;102470.34;4983676;28;20633;-70
2021/08/24 04:41:02;;;;;;;2.10;1.43;;;;;;;9.84;68.63;102463.94;4988376;28;20199;-70
2021/08/24 04:43:34;;;;;;;2.23;1.60;;;;;;;9.69;69.97;102431.41;4982918;28;20206;-67
2021/08/24 04:46:02;;;;;;;2.57;1.27;;;;;;;9.94;70.03;102459.97;4985680;28;20214;-67
2021/08/24 04:48:32;;;;;;;2.73;1.57;;;;;;;9.85;69.63;102448.72;4986159;28;20215;-68
2021/08/24 04:51:01;;;;;;;2.93;1.50;;;;;;;10.08;70.42;102469.28;4981137;28;20238;-65
2021/08/24 04:53:29;;;;;;;3.10;1.50;;;;;;;10.16;70.08;102470.78;4985899;28;20613;-69
2021/08/24 04:55:58;;;;;;;2.93;1.53;;;;;;;10.14;69.28;102442.25;4984394;28;20200;-70
2021/08/24 04:58:26;;;;;;;2.53;1.50;;;;;;;10.44;70.00;102467.94;4987174;28;20254;-68
2021/08/24 05:00:55;;;;;;;1.70;1.30;;;;;;;10.55;70.39;102476.44;4986293;28;20717;-69
2021/08/24 05:03:27;;;;;;;2.33;1.47;;;;;;;10.64;71.16;102476.97;4987495;28;20721;-69
2021/08/24 05:05:56;;;;;;;2.63;1.40;;;;;;;10.76;70.81;102479.19;4985901;28;20203;-69
2021/08/24 05:08:24;;;;;;;3.03;1.80;;;;;;;10.87;70.52;102467.06;4986605;28;20211;-69
2021/08/24 05:10:52;;;;;;;2.37;1.67;;;;;;;10.86;69.94;102451.00;4978826;28;20263;-69
2021/08/24 05:13:21;;;;;;;2.53;1.63;;;;;;;11.18;70.36;102476.53;5000021;28;20215;-70
2021/08/24 05:15:49;;;;;;;2.00;1.47;;;;;;;11.32;70.94;102475.94;4973804;28;20675;-69
2021/08/24 05:18:17;;;;;;;2.37;1.60;;;;;;;11.45;70.70;102475.34;4987348;28;20261;-69
2021/08/24 05:20:45;;;;;;;1.87;1.30;;;;;;;11.60;71.06;102481.00;4987728;28;20650;-69
2021/08/24 05:23:15;;;;;;;3.70;1.30;;;;;;;11.76;72.59;102468.63;4989889;28;20258;-69
2021/08/24 05:25:43;;;;;;;1.67;1.40;;;;;;;11.94;72.90;102473.22;4987550;28;20204;-69
2021/08/24 05:28:11;;;;;;;2.17;1.60;;;;;;;12.13;72.60;102471.41;4984570;28;20207;-69
2021/08/24 05:30:39;;;;;;;3.03;1.50;;;;;;;12.32;72.80;102474.13;4979909;28;20686;-70
2021/08/24 05:33:07;;;;;;;1.87;1.40;;;;;;;12.55;71.94;102473.03;4975005;28;20624;-70
2021/08/24 05:35:35;;;;;;;2.67;1.57;;;;;;;12.78;71.48;102476.41;4984072;28;20551;-70
2021/08/24 05:38:03;;;;;;;2.23;1.40;;;;;;;12.63;71.55;102416.91;4988909;28;20218;-70
2021/08/24 05:40:32;;;;;;;3.43;1.70;;;;;;;13.12;72.01;102484.56;4990530;28;20748;-69
2021/08/24 05:43:01;;;;;;;1.30;1.20;;;;;;;13.25;72.03;102483.03;4987352;28;20213;-70
2021/08/24 05:45:29;;;;;;;2.53;1.50;;;;;;;13.35;71.59;102483.44;4987697;28;20254;-69
2021/08/24 05:47:57;;;;;;;1.77;1.30;;;;;;;12.98;71.34;102392.69;4989922;28;20213;-70
2021/08/24 05:50:26;;;;;;;4.43;1.60;;;;;;;13.48;72.31;102456.69;4989325;28;20272;-70
2021/08/24 05:52:55;;;;;;;1.73;1.50;;;;;;;13.78;72.53;102476.69;4989663;28;20211;-69
2021/08/24 05:55:23;;;;;;;2.40;1.43;;;;;;;13.88;72.61;102467.13;4989670;28;20200;-70
2021/08/24 05:57:53;;;;;;;1.77;1.50;;;;;;;14.17;72.11;102472.78;4988897;28;20203;-69
2021/08/24 06:00:22;;;;;;;3.70;1.43;;;;;;;14.41;71.69;102481.34;4988457;28;20219;-69
2021/08/24 06:02:50;;;;;;;2.07;1.50;;;;;;;14.65;72.17;102476.41;4983194;28;20297;-69
2021/08/24 06:05:18;;;;;;;1.50;1.20;;;;;;;14.88;71.90;102475.97;4989074;28;20207;-69
2021/08/24 06:07:46;;;;;;;2.93;1.50;;;;;;;15.05;70.68;102473.16;4984269;28;20701;-69
2021/08/24 06:10:15;;;;;;;2.13;1.20;;;;;;;15.19;69.97;102475.03;4984992;28;20212;-69
2021/08/24 06:12:45;;;;;;;3.30;1.50;;;;;;;15.38;69.86;102470.28;4983411;28;20201;-69
2021/08/24 06:15:15;;;;;;;1.50;1.20;;;;;;;15.63;68.96;102463.41;5003251;28;20208;-69
2021/08/24 06:17:46;;;;;;;2.70;1.47;;;;;;;15.92;68.30;102465.19;4988892;28;20278;-69
2021/08/24 06:20:14;;;;;;;5.17;1.53;;;;;;;16.28;67.48;102480.97;4996709;28;20251;-69
2021/08/24 06:22:42;;;;;;;1.87;1.30;;;;;;;16.65;65.94;102468.59;4974750;28;20204;-69
2021/08/24 06:25:11;;;;;;;4.23;1.50;;;;;;;16.93;63.95;102462.25;4972518;28;20279;-70
2021/08/24 06:27:40;;;;;;;1.33;1.20;;;;;;;17.27;62.61;102468.97;4981993;28;20230;-70
2021/08/24 06:30:09;;;;;;;1.30;1.17;;;;;;;17.55;62.75;102467.06;4977369;28;20227;-69
2021/08/24 06:32:44;;;;;;;3.83;1.40;;;;;;;17.78;60.02;102471.81;4981352;28;20207;-69
2021/08/24 06:35:13;;;;;;;1.83;1.27;;;;;;;17.97;58.17;102474.06;4980879;28;20659;-69
2021/08/24 06:37:41;;;;;;;2.10;1.23;;;;;;;18.00;57.39;102471.13;4983521;28;20200;-69
2021/08/24 06:40:13;;;;;;;2.30;1.30;;;;;;;18.04;56.27;102467.22;4976715;28;20193;-69
2021/08/24 06:42:44;;;;;;;2.50;1.40;;;;;;;18.23;53.73;102475.78;4995761;28;20686;-69
2021/08/24 06:45:15;;;;;;;2.50;1.53;;;;;;;18.25;53.53;102468.41;4987942;28;20630;-70
2021/08/24 06:47:45;;;;;;;3.67;1.70;;;;;;;18.21;52.95;102472.31;4985265;28;20717;-69
2021/08/24 06:50:13;;;;;;;2.50;1.43;;;;;;;18.54;52.05;102468.97;4986665;28;20219;-69
2021/08/24 06:52:41;;;;;;;2.80;1.73;;;;;;;18.89;52.93;102466.38;4983918;28;20227;-70
2021/08/24 06:55:10;;;;;;;2.20;1.60;;;;;;;19.14;52.44;102468.13;4987285;28;20659;-70
2021/08/24 06:57:39;;;;;;;2.87;1.50;;;;;;;18.95;51.87;102431.50;4989426;28;20204;-70
2021/08/24 07:00:14;;;;;;;2.33;1.40;;;;;;;18.65;47.32;102442.84;4986329;28;20651;-70
2021/08/24 07:02:42;;;;;;;5.27;1.33;;;;;;;19.00;49.06;102475.63;4985384;28;20822;-70
2021/08/24 07:05:13;;;;;;;2.67;1.00;;;;;;;19.08;48.72;102475.91;4986227;28;20208;-70
2021/08/24 07:07:42;;;;;;;2.80;1.40;;;;;;;19.15;47.10;102474.44;4984917;28;20593;-69
2021/08/24 07:10:12;;;;;;;3.33;1.60;;;;;;;19.18;47.50;102468.75;4985229;28;20204;-69
2021/08/24 07:12:41;;;;;;;3.33;1.50;;;;;;;19.31;48.88;102474.16;4984630;28;20696;-69
2021/08/24 07:15:11;;;;;;;2.97;1.60;;;;;;;19.35;49.65;102475.66;4984625;28;20597;-70
2021/08/24 07:17:39;;;;;;;2.67;1.60;;;;;;;19.72;48.62;102460.91;4983617;28;20242;-70
2021/08/24 07:20:10;;;;;;;2.13;1.47;;;;;;;20.04;49.08;102463.81;4984175;28;20204;-70
2021/08/24 07:22:40;;;;;;;2.47;1.50;;;;;;;20.07;49.27;102447.19;4985905;28;20234;-70
2021/08/24 07:25:12;;;;;;;3.10;1.50;;;;;;;20.20;48.58;102468.88;5003503;28;20208;-70
2021/08/24 07:27:40;;;;;;;2.47;1.50;;;;;;;20.07;48.80;102469.00;4984793;28;20218;-70
2021/08/24 07:30:10;;;;;;;2.77;1.70;;;;;;;20.14;49.27;102439.38;4984652;28;20203;-70
2021/08/24 07:32:38;;;;;;;2.80;1.70;;;;;;;20.25;48.91;102472.13;4984654;28;20223;-70
2021/08/24 07:35:08;;;;;;;2.60;1.60;;;;;;;20.59;49.40;102469.41;4992858;28;20290;-70
2021/08/24 07:37:36;;;;;;;2.93;1.43;;;;;;;20.71;48.38;102463.78;4986139;28;20211;-70
2021/08/24 07:40:09;;;;;;;4.03;2.07;;;;;;;20.65;48.02;102466.16;4983718;28;20209;-70
2021/08/24 07:42:37;;;;;;;3.17;1.60;;;;;;;20.70;48.77;102469.38;4984843;28;20196;-70
2021/08/24 07:45:07;;;;;;;1.70;1.60;;;;;;;20.94;48.71;102456.41;4984662;28;20220;-70
2021/08/24 07:47:35;;;;;;;3.00;1.80;;;;;;;;;;4984859;28;20205;-69
2021/08/24 07:50:03;;;;;;;1.93;1.50;;;;;;;21.04;48.43;102451.88;4990861;28;20204;-69
2021/08/24 07:52:32;;;;;;;2.50;1.60;;;;;;;20.95;47.79;102446.34;4984332;28;20224;-70
2021/08/24 07:55:00;;;;;;;3.10;1.40;;;;;;;20.83;48.08;102444.66;4987306;28;20270;-70
2021/08/24 07:57:29;;;;;;;2.40;1.67;;;;;;;20.97;47.71;102437.00;4981738;28;20203;-69
2021/08/24 07:59:57;;;;;;;3.43;1.40;;;;;;;21.07;47.75;102437.09;4993413;28;20295;-70
2021/08/24 08:02:26;;;;;;;2.00;1.50;;;;;;;21.25;47.68;102438.28;4982162;28;20232;-70
2021/08/24 08:04:54;;;;;;;4.47;1.37;;;;;;;21.14;47.84;102437.44;4982857;28;20607;-70
2021/08/24 08:07:22;;;;;;;2.60;1.30;;;;;;;21.25;47.65;102441.03;4984204;28;20204;-70
2021/08/24 08:09:50;;;;;;;1.80;1.50;;;;;;;21.35;47.36;102443.81;4987391;28;20682;-68
2021/08/24 08:12:20;;;;;;;1.60;1.20;;;;;;;21.56;47.66;102446.56;5001737;28;20372;-70
2021/08/24 08:14:50;;;;;;;9.33;1.67;;;;;;;22.06;47.11;102446.75;4983337;28;20283;-69
2021/08/24 08:17:18;;;;;;;1.47;1.20;;;;;;;22.10;47.02;102388.00;4985666;28;20730;-69
2021/08/24 08:19:46;;;;;;;2.27;1.40;;;;;;;22.67;46.39;102450.28;4984444;28;20207;-69
2021/08/24 08:22:15;;;;;;;2.27;1.33;;;;;;;22.86;45.75;102454.94;4983446;28;20206;-69
2021/08/24 08:24:43;;;;;;;1.70;1.13;;;;;;;23.02;46.56;102449.78;4985235;28;21811;-69
2021/08/24 08:27:11;;;;;;;2.43;1.50;;;;;;;22.45;44.55;102443.16;4983378;28;20735;-69
2021/08/24 08:29:39;;;;;;;1.27;1.17;;;;;;;22.62;45.61;102455.28;4984862;28;20203;-68
2021/08/24 08:32:12;;;;;;;2.23;1.27;;;;;;;22.27;45.21;102448.41;4987581;28;20235;-68
2021/08/24 08:34:42;;;;;;;1.47;1.37;;;;;;;22.27;45.57;102451.16;4987081;28;20188;-68
2021/08/24 08:37:10;;;;;;;3.53;1.40;;;;;;;22.52;45.91;102444.31;4983703;28;20208;-68
2021/08/24 08:39:38;;;;;;;1.50;1.30;;;;;;;22.56;46.46;102453.13;4995918;28;20206;-68
2021/08/24 08:42:32;;;;;;;3.73;1.80;;;;;;;22.35;45.65;102444.09;4999287;28;20655;-68
2021/08/24 08:45:09;;;;;;;2.03;1.33;;;;;;;22.30;46.67;102444.53;4982032;28;20719;-69
2021/08/24 08:47:53;;;;;;;3.00;1.60;;;;;;;21.99;47.18;102441.78;4978014;28;20259;-69
2021/08/24 08:50:31;;;;;;;3.80;1.37;;;;;;;22.12;46.55;102440.72;4980946;28;20208;-69
2021/08/24 08:53:06;;;;;;;2.73;1.40;;;;;;;22.14;45.88;102439.59;4982679;28;20230;-69
2021/08/24 08:55:44;;;;;;;5.03;1.67;;;;;;;22.13;44.92;102443.34;4983152;28;20211;-69
2021/08/24 08:58:31;;;;;;;3.17;1.60;;;;;;;22.10;47.41;102442.75;4986922;28;20880;-69
2021/08/24 09:01:08;;;;;;;3.37;1.70;;;;;;;21.99;46.51;102441.78;4987573;28;21549;-69
2021/08/24 09:03:51;;;;;;;3.47;1.60;;;;;;;22.07;46.95;102445.75;4981273;28;20239;-69
2021/08/24 09:06:25;;;;;;;2.57;1.60;;;;;;;22.28;46.23;102446.53;4989078;28;20204;-70
2021/08/24 09:08:54;;;;;;;4.00;1.57;;;;;;;22.48;45.81;102442.88;4988414;28;20211;-70
2021/08/24 09:11:28;;;;;;;2.33;1.17;;;;;;;22.81;45.84;102438.06;4981931;28;20250;-69
2021/08/24 09:14:03;;;;;;;2.73;1.20;;;;;;;22.76;45.54;102434.88;4976362;28;20213;-69
2021/08/24 09:16:35;;;;;;;1.73;1.17;;;;;;;23.16;44.16;102432.91;4978210;28;20234;-70
2021/08/24 09:19:10;;;;;;;1.70;1.40;;;;;;;23.33;43.60;102424.97;4988449;28;20211;-69
2021/08/24 09:21:40;;;;;;;2.80;1.40;;;;;;;23.76;44.02;102429.94;4987754;28;20204;-69
2021/08/24 09:24:14;;;;;;;5.70;1.70;;;;;;;24.05;43.91;102425.22;4989029;28;20200;-70
2021/08/24 09:26:56;;;;;;;2.10;1.33;;;;;;;24.12;42.70;102428.22;4988869;28;20208;-69
2021/08/24 09:29:28;;;;;;;3.23;1.80;;;;;;;23.96;42.32;102419.78;4990635;28;20208;-69
2021/08/24 09:31:57;;;;;;;2.60;1.53;;;;;;;23.53;42.21;102427.50;4976577;28;20592;-69
2021/08/24 09:34:29;;;;;;;2.30;1.43;;;;;;;23.35;44.29;102425.69;4989983;28;20247;-69
2021/08/24 09:36:57;;;;;;;2.90;1.83;;;;;;;23.12;44.02;102417.75;4989371;28;20262;-69
2021/08/24 09:39:53;;;;;;;2.13;1.20;;;;;;;22.90;43.41;102415.28;4990036;28;20679;-69
2021/08/24 09:42:31;;;;;;;1.93;1.43;;;;;;;22.72;44.99;102417.84;4989597;28;20200;-69
2021/08/24 09:45:01;;;;;;;3.83;1.60;;;;;;;22.75;43.73;102389.28;4989016;28;20655;-69
2021/08/24 09:47:30;;;;;;;1.77;1.40;;;;;;;23.47;42.93;102403.41;4989694;28;20192;-69
2021/08/24 09:50:04;;;;;;;2.87;1.50;;;;;;;23.75;43.48;102387.06;4988449;28;20262;-69
2021/08/24 09:52:37;;;;;;;2.03;1.57;;;;;;;23.95;42.74;102365.91;4998035;28;20660;-69
2021/08/24 09:55:12;;;;;;;2.93;1.53;;;;;;;24.43;41.66;102391.22;5000714;28;20208;-69
2021/08/24 09:57:50;;;;;;;3.73;1.53;;;;;;;24.42;41.87;102389.50;4989227;28;20270;-69
2021/08/24 10:00:22;;;;;;;1.40;1.30;;;;;;;23.89;41.85;102319.84;4977359;28;20202;-69
2021/08/24 10:02:52;;;;;;;3.13;1.70;;;;;;;24.72;41.88;102393.78;4983363;28;20809;-69
2021/08/24 10:05:38;;;;;;;4.00;1.40;;;;;;;25.05;40.35;102394.13;4985894;28;20206;-69
2021/08/24 10:08:29;;;;;;;3.90;1.50;;;;;;;24.86;39.83;102386.03;4986774;28;20262;-69
2021/08/24 10:11:08;;;;;;;2.80;1.70;;;;;;;25.36;41.09;102378.06;4982423;28;20204;-69
2021/08/24 10:13:39;;;;;;;1.30;1.20;;;;;;;25.36;39.15;102381.66;4986620;28;20239;-69
2021/08/24 10:16:11;;;;;;;3.10;1.70;;;;;;;24.91;40.66;102384.53;4984887;28;20246;-69
2021/08/24 10:18:41;;;;;;;2.77;1.60;;;;;;;25.35;40.55;102381.84;4987527;28;20585;-69
2021/08/24 10:21:14;;;;;;;3.60;1.80;;;;;;;25.20;39.83;102389.81;4990815;28;20208;-69
2021/08/24 10:23:58;;;;;;;4.68;1.85;;;;;;;24.50;39.20;102390.66;4982740;28;20659;-69
2021/08/24 10:26:28;;;;;;;3.03;1.63;;;;;;;23.64;40.40;102311.31;4991019;28;20255;-69
2021/08/24 10:28:59;;;;;;;4.63;1.30;;;;;;;24.08;41.05;102388.38;4992803;28;20606;-69
2021/08/24 10:31:36;;;;;;;2.47;1.58;;;;;;;24.30;40.62;102396.25;4992196;28;20212;-69
2021/08/24 10:34:06;;;;;;;2.43;1.77;;;;;;;24.26;41.18;102383.81;4982319;28;20406;-69
2021/08/24 10:36:40;;;;;;;2.73;1.50;;;;;;;24.83;41.05;102392.72;4987267;28;20216;-69
2021/08/24 10:39:24;;;;;;;1.90;1.53;;;;;;;25.14;40.63;102393.22;4986318;28;20615;-69
2021/08/24 10:42:04;;;;;;;2.23;1.60;;;;;;;25.51;38.94;102392.97;4988049;28;20246;-69
2021/08/24 10:44:43;;;;;;;1.90;1.57;;;;;;;25.90;40.40;102387.03;4989031;28;20553;-69
2021/08/24 10:47:22;;;;;;;3.53;1.63;;;;;;;26.07;39.48;102360.47;4983381;28;20259;-69
2021/08/24 10:49:51;;;;;;;2.60;1.60;;;;;;;26.28;39.02;102363.59;4984179;28;20669;-70
2021/08/24 10:52:33;;;;;;;2.22;1.67;;;;;;;26.15;37.53;102358.59;4982840;28;20200;-70
2021/08/24 10:55:09;;;;;;;2.58;1.80;;;;;;;25.74;38.81;102296.13;4985463;28;20211;-69
2021/08/24 10:57:50;;;;;;;5.90;1.73;;;;;;;26.56;38.60;102356.84;4979483;28;20211;-69
2021/08/24 11:00:37;;;;;;;2.35;1.77;;;;;;;26.85;38.48;102352.72;5001544;28;20652;-69
2021/08/24 11:03:26;;;;;;;2.88;1.45;;;;;;;26.61;38.14;102348.03;4982325;28;20224;-69
2021/08/24 11:06:05;;;;;;;3.75;1.70;;;;;;;26.53;37.43;102348.03;4987867;28;20653;-69
2021/08/24 11:08:47;;;;;;;3.78;1.60;;;;;;;26.75;37.24;102336.38;4981694;28;20221;-69
2021/08/24 11:11:26;;;;;;;3.00;1.80;;;;;;;27.01;37.86;102339.00;4980120;28;20679;-70
2021/08/24 11:14:04;;;;;;;3.08;1.50;;;;;;;26.59;36.91;102339.09;4989965;28;20305;-69
2021/08/24 11:16:49;;;;;;;2.42;1.50;;;;;;;25.89;37.27;102335.75;4983809;28;20247;-70
2021/08/24 11:19:44;;;;;;;3.38;1.50;;;;;;;25.48;37.93;102327.25;4994630;28;20212;-69
2021/08/24 11:22:22;;;;;;;2.13;1.50;;;;;;;25.35;38.24;102324.91;4984958;28;20250;-69
2021/08/24 11:25:03;;;;;;;2.67;1.85;;;;;;;25.02;38.59;102322.97;4996361;28;20204;-68
2021/08/24 11:27:41;;;;;;;3.92;1.50;;;;;;;24.64;39.24;102327.75;4992673;28;20196;-68
2021/08/24 11:30:20;;;;;;;1.70;1.17;;;;;;;24.14;39.07;102302.63;4989685;28;20675;-68
2021/08/24 11:32:53;;;;;;;2.17;1.40;;;;;;;24.15;39.84;102320.84;4990578;28;20551;-68
2021/08/24 11:35:28;;;;;;;2.83;1.60;;;;;;;24.05;39.94;102320.91;4986899;28;20275;-68
2021/08/24 11:38:00;;;;;;;3.27;1.80;;;;;;;24.28;40.06;102309.53;4973249;28;20204;-68
2021/08/24 11:40:36;;;;;;;2.00;1.50;;;;;;;24.14;39.00;102305.38;4987687;28;20453;-68
2021/08/24 11:43:12;;;;;;;2.07;1.57;;;;;;;23.93;40.25;102310.31;4989958;28;20246;-68
2021/08/24 11:45:45;;;;;;;2.17;1.30;;;;;;;23.76;39.79;102296.34;4992325;28;20234;-68
2021/08/24 11:48:20;;;;;;;3.10;1.50;;;;;;;23.70;40.19;102299.72;4991624;28;20196;-68